sensor_id;sensor_type;location;lat;lon;timestamp;temperature;humidity
44647;DHT22;56315;-33.902;151.160;2023-05-10T00:01:01;28.50;87.20
44647;DHT22;56315;-33.902;151.160;2023-05-10T00:03:29;28.60;87.50
44647;DHT22;56315;-33.902;151.160;2023-05-10T00:05:56;28.70;86.30
44647;DHT22;56315;-33.902;151.160;2023-05-10T00:08:23;29.10;86.40
44647;DHT22;56315;-33.902;151.160;2023-05-10T00:10:50;29.50;86.20
44647;DHT22;56315;-33.902;151.160;2023-05-10T00:13:17;30.00;85.70
44647;DHT22;56315;-33.902;151.160;2023-05-10T00:15:45;30.00;84.70
44647;DHT22;56315;-33.902;151.160;2023-05-10T00:18:12;29.70;85.00
44647;DHT22;56315;-33.902;151.160;2023-05-10T00:20:39;30.00;85.60
44647;DHT22;56315;-33.902;151.160;2023-05-10T00:23:06;30.00;84.10
44647;DHT22;56315;-33.902;151.160;2023-05-10T00:25:33;30.00;84.50
44647;DHT22;56315;-33.902;151.160;2023-05-10T00:28:01;30.30;86.30
44647;DHT22;56315;-33.902;151.160;2023-05-10T00:30:28;30.70;84.10
44647;DHT22;56315;-33.902;151.160;2023-05-10T00:32:55;30.80;83.50
44647;DHT22;56315;-33.902;151.160;2023-05-10T00:35:22;30.60;82.50
44647;DHT22;56315;-33.902;151.160;2023-05-10T00:37:50;30.50;81.30
44647;DHT22;56315;-33.902;151.160;2023-05-10T00:40:17;30.30;82.00
44647;DHT22;56315;-33.902;151.160;2023-05-10T00:42:44;30.50;82.70
44647;DHT22;56315;-33.902;151.160;2023-05-10T00:45:11;30.50;81.50
44647;DHT22;56315;-33.902;151.160;2023-05-10T00:47:39;30.30;81.30
44647;DHT22;56315;-33.902;151.160;2023-05-10T00:50:07;30.50;80.80
44647;DHT22;56315;-33.902;151.160;2023-05-10T00:52:35;30.40;81.90
44647;DHT22;56315;-33.902;151.160;2023-05-10T00:55:03;30.50;81.90
44647;DHT22;56315;-33.902;151.160;2023-05-10T00:57:31;30.70;81.30
44647;DHT22;56315;-33.902;151.160;2023-05-10T00:59:59;30.50;80.90
44647;DHT22;56315;-33.902;151.160;2023-05-10T01:02:26;30.70;80.80
44647;DHT22;56315;-33.902;151.160;2023-05-10T01:04:54;30.30;81.10
44647;DHT22;56315;-33.902;151.160;2023-05-10T01:07:21;30.20;81.90
44647;DHT22;56315;-33.902;151.160;2023-05-10T01:09:49;30.20;81.20
44647;DHT22;56315;-33.902;151.160;2023-05-10T01:12:17;30.40;83.10
44647;DHT22;56315;-33.902;151.160;2023-05-10T01:14:45;30.10;82.10
44647;DHT22;56315;-33.902;151.160;2023-05-10T01:17:13;30.50;81.70
44647;DHT22;56315;-33.902;151.160;2023-05-10T01:19:40;30.50;81.40
44647;DHT22;56315;-33.902;151.160;2023-05-10T01:42:14;31.70;80.50
44647;DHT22;56315;-33.902;151.160;2023-05-10T01:45:00;31.40;79.40
44647;DHT22;56315;-33.902;151.160;2023-05-10T01:47:41;30.90;80.50
44647;DHT22;56315;-33.902;151.160;2023-05-10T01:50:19;30.40;80.20
44647;DHT22;56315;-33.902;151.160;2023-05-10T01:52:51;30.00;80.90
44647;DHT22;56315;-33.902;151.160;2023-05-10T01:55:20;29.90;82.10
44647;DHT22;56315;-33.902;151.160;2023-05-10T01:57:52;30.00;82.10
44647;DHT22;56315;-33.902;151.160;2023-05-10T02:00:23;30.30;81.60
44647;DHT22;56315;-33.902;151.160;2023-05-10T02:02:51;30.30;81.70
44647;DHT22;56315;-33.902;151.160;2023-05-10T02:05:19;30.10;81.50
44647;DHT22;56315;-33.902;151.160;2023-05-10T02:07:47;30.00;80.90
44647;DHT22;56315;-33.902;151.160;2023-05-10T02:10:16;29.90;82.10
44647;DHT22;56315;-33.902;151.160;2023-05-10T02:12:47;29.90;81.80
44647;DHT22;56315;-33.902;151.160;2023-05-10T02:15:17;29.90;81.80
44647;DHT22;56315;-33.902;151.160;2023-05-10T02:17:47;29.90;82.50
44647;DHT22;56315;-33.902;151.160;2023-05-10T02:20:16;29.60;81.30
44647;DHT22;56315;-33.902;151.160;2023-05-10T02:22:45;29.60;82.00
44647;DHT22;56315;-33.902;151.160;2023-05-10T02:25:14;29.30;81.10
44647;DHT22;56315;-33.902;151.160;2023-05-10T02:27:43;29.10;82.30
44647;DHT22;56315;-33.902;151.160;2023-05-10T02:30:11;29.20;82.70
44647;DHT22;56315;-33.902;151.160;2023-05-10T02:32:39;29.70;83.00
44647;DHT22;56315;-33.902;151.160;2023-05-10T02:35:08;30.00;81.30
44647;DHT22;56315;-33.902;151.160;2023-05-10T02:37:37;30.00;81.70
44647;DHT22;56315;-33.902;151.160;2023-05-10T02:40:25;30.20;81.60
44647;DHT22;56315;-33.902;151.160;2023-05-10T02:42:54;30.40;81.20
44647;DHT22;56315;-33.902;151.160;2023-05-10T02:45:27;30.50;81.40
44647;DHT22;56315;-33.902;151.160;2023-05-10T02:47:55;30.10;81.00
44647;DHT22;56315;-33.902;151.160;2023-05-10T02:50:25;29.90;82.00
44647;DHT22;56315;-33.902;151.160;2023-05-10T02:52:59;29.60;81.90
44647;DHT22;56315;-33.902;151.160;2023-05-10T02:55:32;29.30;83.00
44647;DHT22;56315;-33.902;151.160;2023-05-10T02:58:03;29.40;83.30
44647;DHT22;56315;-33.902;151.160;2023-05-10T03:00:30;29.00;83.20
44647;DHT22;56315;-33.902;151.160;2023-05-10T03:02:58;28.90;83.00
44647;DHT22;56315;-33.902;151.160;2023-05-10T03:05:25;29.10;83.80
44647;DHT22;56315;-33.902;151.160;2023-05-10T03:07:53;29.30;83.70
44647;DHT22;56315;-33.902;151.160;2023-05-10T03:10:25;29.40;83.00
44647;DHT22;56315;-33.902;151.160;2023-05-10T03:16:12;28.90;83.50
44647;DHT22;56315;-33.902;151.160;2023-05-10T03:18:23;28.60;83.20
44647;DHT22;56315;-33.902;151.160;2023-05-10T03:20:57;28.30;83.70
44647;DHT22;56315;-33.902;151.160;2023-05-10T03:23:38;27.90;84.60
44647;DHT22;56315;-33.902;151.160;2023-05-10T03:26:08;27.40;85.10
44647;DHT22;56315;-33.902;151.160;2023-05-10T03:28:36;27.00;86.50
44647;DHT22;56315;-33.902;151.160;2023-05-10T03:31:05;26.40;85.80
44647;DHT22;56315;-33.902;151.160;2023-05-10T03:33:32;25.60;88.20
44647;DHT22;56315;-33.902;151.160;2023-05-10T03:36:00;24.80;89.20
44647;DHT22;56315;-33.902;151.160;2023-05-10T03:38:27;24.40;90.40
44647;DHT22;56315;-33.902;151.160;2023-05-10T03:40:54;23.80;90.40
44647;DHT22;56315;-33.902;151.160;2023-05-10T03:43:22;23.60;90.40
44647;DHT22;56315;-33.902;151.160;2023-05-10T03:45:50;23.30;91.00
44647;DHT22;56315;-33.902;151.160;2023-05-10T03:48:17;23.00;91.00
44647;DHT22;56315;-33.902;151.160;2023-05-10T03:50:44;22.70;91.30
44647;DHT22;56315;-33.902;151.160;2023-05-10T03:53:12;22.60;91.50
44647;DHT22;56315;-33.902;151.160;2023-05-10T03:55:40;22.20;91.00
44647;DHT22;56315;-33.902;151.160;2023-05-10T03:58:11;22.00;91.30
44647;DHT22;56315;-33.902;151.160;2023-05-10T04:00:38;21.80;91.40
44647;DHT22;56315;-33.902;151.160;2023-05-10T04:03:11;21.60;92.30
44647;DHT22;56315;-33.902;151.160;2023-05-10T04:05:38;21.40;92.40
44647;DHT22;56315;-33.902;151.160;2023-05-10T04:08:06;21.20;92.90
44647;DHT22;56315;-33.902;151.160;2023-05-10T04:10:33;21.20;93.30
44647;DHT22;56315;-33.902;151.160;2023-05-10T04:13:01;21.20;93.80
44647;DHT22;56315;-33.902;151.160;2023-05-10T04:15:28;21.10;93.50
44647;DHT22;56315;-33.902;151.160;2023-05-10T04:17:55;21.10;93.60
44647;DHT22;56315;-33.902;151.160;2023-05-10T04:20:23;21.00;93.90
44647;DHT22;56315;-33.902;151.160;2023-05-10T04:22:50;20.80;94.00
44647;DHT22;56315;-33.902;151.160;2023-05-10T04:25:17;20.80;94.90
44647;DHT22;56315;-33.902;151.160;2023-05-10T04:27:44;20.70;94.80
44647;DHT22;56315;-33.902;151.160;2023-05-10T04:30:12;20.70;94.90
44647;DHT22;56315;-33.902;151.160;2023-05-10T04:32:39;20.70;95.00
44647;DHT22;56315;-33.902;151.160;2023-05-10T04:35:06;20.80;94.90
44647;DHT22;56315;-33.902;151.160;2023-05-10T04:37:34;21.00;95.20
44647;DHT22;56315;-33.902;151.160;2023-05-10T04:40:01;21.10;94.70
44647;DHT22;56315;-33.902;151.160;2023-05-10T04:42:29;21.20;94.60
44647;DHT22;56315;-33.902;151.160;2023-05-10T04:44:56;21.20;94.60
44647;DHT22;56315;-33.902;151.160;2023-05-10T04:47:24;21.20;94.60
44647;DHT22;56315;-33.902;151.160;2023-05-10T04:49:51;21.00;94.80
44647;DHT22;56315;-33.902;151.160;2023-05-10T04:52:18;20.80;95.30
44647;DHT22;56315;-33.902;151.160;2023-05-10T04:54:45;20.50;95.70
44647;DHT22;56315;-33.902;151.160;2023-05-10T04:57:12;20.40;96.30
44647;DHT22;56315;-33.902;151.160;2023-05-10T04:59:40;20.30;96.70
44647;DHT22;56315;-33.902;151.160;2023-05-10T05:02:07;20.20;96.80
44647;DHT22;56315;-33.902;151.160;2023-05-10T05:04:34;20.10;97.30
44647;DHT22;56315;-33.902;151.160;2023-05-10T05:07:01;19.90;97.40
44647;DHT22;56315;-33.902;151.160;2023-05-10T05:09:28;19.80;97.30
44647;DHT22;56315;-33.902;151.160;2023-05-10T05:11:56;19.70;97.40
44647;DHT22;56315;-33.902;151.160;2023-05-10T05:14:23;19.60;97.30
44647;DHT22;56315;-33.902;151.160;2023-05-10T05:16:52;19.60;97.90
44647;DHT22;56315;-33.902;151.160;2023-05-10T05:19:19;19.60;98.40
44647;DHT22;56315;-33.902;151.160;2023-05-10T05:21:47;19.60;98.00
44647;DHT22;56315;-33.902;151.160;2023-05-10T05:24:14;19.60;97.70
44647;DHT22;56315;-33.902;151.160;2023-05-10T05:26:41;19.50;97.60
44647;DHT22;56315;-33.902;151.160;2023-05-10T05:29:08;19.40;98.10
44647;DHT22;56315;-33.902;151.160;2023-05-10T05:31:36;19.40;98.30
44647;DHT22;56315;-33.902;151.160;2023-05-10T05:34:03;19.30;98.70
44647;DHT22;56315;-33.902;151.160;2023-05-10T05:36:30;19.20;98.70
44647;DHT22;56315;-33.902;151.160;2023-05-10T05:38:58;19.10;98.70
44647;DHT22;56315;-33.902;151.160;2023-05-10T05:41:25;19.10;98.90
44647;DHT22;56315;-33.902;151.160;2023-05-10T05:43:52;19.00;99.10
44647;DHT22;56315;-33.902;151.160;2023-05-10T05:46:19;18.90;99.20
44647;DHT22;56315;-33.902;151.160;2023-05-10T05:48:47;18.80;99.60
44647;DHT22;56315;-33.902;151.160;2023-05-10T05:51:14;18.70;99.50
44647;DHT22;56315;-33.902;151.160;2023-05-10T05:53:41;18.60;99.90
44647;DHT22;56315;-33.902;151.160;2023-05-10T05:56:08;18.50;99.90
44647;DHT22;56315;-33.902;151.160;2023-05-10T05:58:36;18.50;99.90
44647;DHT22;56315;-33.902;151.160;2023-05-10T06:01:03;18.50;99.90
44647;DHT22;56315;-33.902;151.160;2023-05-10T06:03:30;18.40;99.90
44647;DHT22;56315;-33.902;151.160;2023-05-10T06:05:57;18.40;99.90
44647;DHT22;56315;-33.902;151.160;2023-05-10T06:08:25;18.20;99.90
44647;DHT22;56315;-33.902;151.160;2023-05-10T06:10:52;18.20;99.90
44647;DHT22;56315;-33.902;151.160;2023-05-10T06:13:19;18.20;99.90
44647;DHT22;56315;-33.902;151.160;2023-05-10T06:15:47;18.10;99.90
44647;DHT22;56315;-33.902;151.160;2023-05-10T06:18:14;18.10;99.90
44647;DHT22;56315;-33.902;151.160;2023-05-10T06:20:42;18.00;99.90
44647;DHT22;56315;-33.902;151.160;2023-05-10T06:23:09;18.00;99.90
44647;DHT22;56315;-33.902;151.160;2023-05-10T06:25:36;17.90;99.90
44647;DHT22;56315;-33.902;151.160;2023-05-10T06:28:04;17.90;99.90
44647;DHT22;56315;-33.902;151.160;2023-05-10T06:30:31;17.80;99.90
44647;DHT22;56315;-33.902;151.160;2023-05-10T06:32:58;17.80;99.90
44647;DHT22;56315;-33.902;151.160;2023-05-10T06:35:25;17.70;99.90
44647;DHT22;56315;-33.902;151.160;2023-05-10T06:37:52;17.70;99.90
44647;DHT22;56315;-33.902;151.160;2023-05-10T06:40:20;17.60;99.90
44647;DHT22;56315;-33.902;151.160;2023-05-10T06:42:48;17.60;99.90
44647;DHT22;56315;-33.902;151.160;2023-05-10T06:45:16;17.60;99.90
44647;DHT22;56315;-33.902;151.160;2023-05-10T06:47:43;17.40;99.90
44647;DHT22;56315;-33.902;151.160;2023-05-10T06:50:11;17.40;99.90
44647;DHT22;56315;-33.902;151.160;2023-05-10T06:52:39;17.30;99.90
44647;DHT22;56315;-33.902;151.160;2023-05-10T06:55:06;17.30;99.90
44647;DHT22;56315;-33.902;151.160;2023-05-10T06:57:35;17.20;99.90
44647;DHT22;56315;-33.902;151.160;2023-05-10T07:00:03;17.10;99.90
44647;DHT22;56315;-33.902;151.160;2023-05-10T07:02:33;17.00;99.90
44647;DHT22;56315;-33.902;151.160;2023-05-10T07:05:00;17.00;99.90
44647;DHT22;56315;-33.902;151.160;2023-05-10T07:07:28;16.90;99.90
44647;DHT22;56315;-33.902;151.160;2023-05-10T07:09:56;16.90;99.90
44647;DHT22;56315;-33.902;151.160;2023-05-10T07:12:24;16.90;99.90
44647;DHT22;56315;-33.902;151.160;2023-05-10T07:14:52;16.90;99.90
44647;DHT22;56315;-33.902;151.160;2023-05-10T07:17:19;16.80;99.90
44647;DHT22;56315;-33.902;151.160;2023-05-10T07:19:46;16.70;99.90
44647;DHT22;56315;-33.902;151.160;2023-05-10T07:22:14;16.70;99.90
44647;DHT22;56315;-33.902;151.160;2023-05-10T07:24:41;16.60;99.90
44647;DHT22;56315;-33.902;151.160;2023-05-10T07:27:09;16.50;99.90
44647;DHT22;56315;-33.902;151.160;2023-05-10T07:29:36;16.50;99.90
44647;DHT22;56315;-33.902;151.160;2023-05-10T07:32:08;16.40;99.90
44647;DHT22;56315;-33.902;151.160;2023-05-10T07:34:36;16.40;99.90
44647;DHT22;56315;-33.902;151.160;2023-05-10T07:37:04;16.30;99.90
44647;DHT22;56315;-33.902;151.160;2023-05-10T07:39:32;16.30;99.90
44647;DHT22;56315;-33.902;151.160;2023-05-10T07:41:59;16.30;99.90
44647;DHT22;56315;-33.902;151.160;2023-05-10T07:44:27;16.30;99.90
44647;DHT22;56315;-33.902;151.160;2023-05-10T07:46:54;16.30;99.90
44647;DHT22;56315;-33.902;151.160;2023-05-10T07:49:22;16.20;99.90
44647;DHT22;56315;-33.902;151.160;2023-05-10T07:51:52;16.20;99.90
44647;DHT22;56315;-33.902;151.160;2023-05-10T07:54:19;16.20;99.90
44647;DHT22;56315;-33.902;151.160;2023-05-10T07:56:47;16.10;99.90
44647;DHT22;56315;-33.902;151.160;2023-05-10T07:59:18;16.00;99.90
44647;DHT22;56315;-33.902;151.160;2023-05-10T08:01:45;16.00;99.90
44647;DHT22;56315;-33.902;151.160;2023-05-10T08:04:13;16.00;99.90
44647;DHT22;56315;-33.902;151.160;2023-05-10T08:06:40;15.90;99.90
44647;DHT22;56315;-33.902;151.160;2023-05-10T08:09:09;15.90;99.90
44647;DHT22;56315;-33.902;151.160;2023-05-10T08:11:37;15.90;99.90
44647;DHT22;56315;-33.902;151.160;2023-05-10T08:14:04;15.80;99.90
44647;DHT22;56315;-33.902;151.160;2023-05-10T08:16:32;15.80;99.90
44647;DHT22;56315;-33.902;151.160;2023-05-10T08:18:59;15.70;99.90
44647;DHT22;56315;-33.902;151.160;2023-05-10T08:21:26;15.90;99.90
44647;DHT22;56315;-33.902;151.160;2023-05-10T08:23:54;15.80;99.90
44647;DHT22;56315;-33.902;151.160;2023-05-10T08:26:21;15.80;99.90
44647;DHT22;56315;-33.902;151.160;2023-05-10T08:28:49;15.80;99.90
44647;DHT22;56315;-33.902;151.160;2023-05-10T08:31:16;15.80;99.90
44647;DHT22;56315;-33.902;151.160;2023-05-10T08:33:44;15.80;99.90
44647;DHT22;56315;-33.902;151.160;2023-05-10T08:36:11;15.80;99.90
44647;DHT22;56315;-33.902;151.160;2023-05-10T08:38:40;15.70;99.90
44647;DHT22;56315;-33.902;151.160;2023-05-10T08:41:08;15.60;99.90
44647;DHT22;56315;-33.902;151.160;2023-05-10T08:43:36;15.60;99.90
44647;DHT22;56315;-33.902;151.160;2023-05-10T08:46:05;15.60;99.90
44647;DHT22;56315;-33.902;151.160;2023-05-10T08:48:34;15.60;99.90
44647;DHT22;56315;-33.902;151.160;2023-05-10T08:51:04;15.60;99.90
44647;DHT22;56315;-33.902;151.160;2023-05-10T08:53:33;15.50;99.90
44647;DHT22;56315;-33.902;151.160;2023-05-10T08:56:03;15.50;99.90
44647;DHT22;56315;-33.902;151.160;2023-05-10T08:58:30;15.50;99.90
44647;DHT22;56315;-33.902;151.160;2023-05-10T09:00:58;15.50;99.90
44647;DHT22;56315;-33.902;151.160;2023-05-10T09:03:26;15.40;99.90
44647;DHT22;56315;-33.902;151.160;2023-05-10T09:05:54;15.40;99.90
44647;DHT22;56315;-33.902;151.160;2023-05-10T09:08:24;15.30;99.90
44647;DHT22;56315;-33.902;151.160;2023-05-10T09:10:52;15.40;99.90
44647;DHT22;56315;-33.902;151.160;2023-05-10T09:13:22;15.30;99.90
44647;DHT22;56315;-33.902;151.160;2023-05-10T09:15:50;15.30;99.90
44647;DHT22;56315;-33.902;151.160;2023-05-10T09:18:18;15.30;99.90
44647;DHT22;56315;-33.902;151.160;2023-05-10T09:20:45;15.30;99.90
44647;DHT22;56315;-33.902;151.160;2023-05-10T09:23:16;15.20;99.90
44647;DHT22;56315;-33.902;151.160;2023-05-10T09:25:43;15.20;99.90
44647;DHT22;56315;-33.902;151.160;2023-05-10T09:28:11;15.20;99.90
44647;DHT22;56315;-33.902;151.160;2023-05-10T09:30:38;15.10;99.90
44647;DHT22;56315;-33.902;151.160;2023-05-10T09:33:06;15.10;99.90
44647;DHT22;56315;-33.902;151.160;2023-05-10T09:35:33;15.10;99.90
44647;DHT22;56315;-33.902;151.160;2023-05-10T09:38:03;15.00;99.90
44647;DHT22;56315;-33.902;151.160;2023-05-10T09:40:31;15.00;99.90
44647;DHT22;56315;-33.902;151.160;2023-05-10T09:43:03;14.90;99.90
44647;DHT22;56315;-33.902;151.160;2023-05-10T09:45:35;14.80;99.90
44647;DHT22;56315;-33.902;151.160;2023-05-10T09:48:03;14.70;99.90
44647;DHT22;56315;-33.902;151.160;2023-05-10T09:50:31;14.80;99.90
44647;DHT22;56315;-33.902;151.160;2023-05-10T09:53:00;14.80;99.90
44647;DHT22;56315;-33.902;151.160;2023-05-10T09:55:40;14.80;99.90
44647;DHT22;56315;-33.902;151.160;2023-05-10T09:58:07;14.70;99.90
44647;DHT22;56315;-33.902;151.160;2023-05-10T10:00:40;14.50;99.90
44647;DHT22;56315;-33.902;151.160;2023-05-10T10:03:16;14.50;99.90
44647;DHT22;56315;-33.902;151.160;2023-05-10T10:05:48;14.50;99.90
44647;DHT22;56315;-33.902;151.160;2023-05-10T10:08:17;14.40;99.90
44647;DHT22;56315;-33.902;151.160;2023-05-10T10:10:44;14.30;99.90
44647;DHT22;56315;-33.902;151.160;2023-05-10T10:13:12;14.30;99.90
44647;DHT22;56315;-33.902;151.160;2023-05-10T10:15:40;14.20;99.90
44647;DHT22;56315;-33.902;151.160;2023-05-10T10:18:13;14.20;99.90
44647;DHT22;56315;-33.902;151.160;2023-05-10T10:20:44;14.10;99.90
44647;DHT22;56315;-33.902;151.160;2023-05-10T10:23:12;14.10;99.90
44647;DHT22;56315;-33.902;151.160;2023-05-10T10:25:39;14.10;99.90
44647;DHT22;56315;-33.902;151.160;2023-05-10T10:28:26;14.00;99.90
44647;DHT22;56315;-33.902;151.160;2023-05-10T10:31:17;14.00;99.90
44647;DHT22;56315;-33.902;151.160;2023-05-10T10:34:08;13.90;99.90
44647;DHT22;56315;-33.902;151.160;2023-05-10T10:36:48;13.90;99.90
44647;DHT22;56315;-33.902;151.160;2023-05-10T10:39:16;13.70;99.90
44647;DHT22;56315;-33.902;151.160;2023-05-10T10:41:55;13.60;99.90
44647;DHT22;56315;-33.902;151.160;2023-05-10T10:55:21;13.60;99.90
44647;DHT22;56315;-33.902;151.160;2023-05-10T10:57:55;13.60;99.90
44647;DHT22;56315;-33.902;151.160;2023-05-10T11:00:33;13.60;99.90
44647;DHT22;56315;-33.902;151.160;2023-05-10T11:03:06;13.50;99.90
44647;DHT22;56315;-33.902;151.160;2023-05-10T11:08:27;13.40;99.90
44647;DHT22;56315;-33.902;151.160;2023-05-10T11:16:16;13.20;99.90
44647;DHT22;56315;-33.902;151.160;2023-05-10T11:21:31;13.00;99.90
44647;DHT22;56315;-33.902;151.160;2023-05-10T11:24:00;13.00;99.90
44647;DHT22;56315;-33.902;151.160;2023-05-10T11:26:36;13.00;99.90
44647;DHT22;56315;-33.902;151.160;2023-05-10T11:29:04;13.00;99.90
44647;DHT22;56315;-33.902;151.160;2023-05-10T11:31:31;13.00;99.90
44647;DHT22;56315;-33.902;151.160;2023-05-10T11:34:00;12.90;99.90
44647;DHT22;56315;-33.902;151.160;2023-05-10T11:36:35;12.90;99.90
44647;DHT22;56315;-33.902;151.160;2023-05-10T11:39:04;12.80;99.90
44647;DHT22;56315;-33.902;151.160;2023-05-10T11:41:31;12.80;99.90
44647;DHT22;56315;-33.902;151.160;2023-05-10T11:43:59;12.70;99.90
44647;DHT22;56315;-33.902;151.160;2023-05-10T11:46:27;12.70;99.90
44647;DHT22;56315;-33.902;151.160;2023-05-10T11:48:59;12.70;99.90
44647;DHT22;56315;-33.902;151.160;2023-05-10T11:51:36;12.60;99.90
44647;DHT22;56315;-33.902;151.160;2023-05-10T11:54:08;12.50;99.90
44647;DHT22;56315;-33.902;151.160;2023-05-10T11:56:37;12.40;99.90
44647;DHT22;56315;-33.902;151.160;2023-05-10T11:59:04;12.40;99.90
44647;DHT22;56315;-33.902;151.160;2023-05-10T12:01:32;12.40;99.90
44647;DHT22;56315;-33.902;151.160;2023-05-10T12:04:00;12.30;99.90
44647;DHT22;56315;-33.902;151.160;2023-05-10T12:06:30;12.30;99.90
44647;DHT22;56315;-33.902;151.160;2023-05-10T12:08:58;12.30;99.90
44647;DHT22;56315;-33.902;151.160;2023-05-10T12:11:27;12.30;99.90
44647;DHT22;56315;-33.902;151.160;2023-05-10T12:13:55;12.20;99.90
44647;DHT22;56315;-33.902;151.160;2023-05-10T12:16:24;12.20;99.90
44647;DHT22;56315;-33.902;151.160;2023-05-10T12:18:53;12.20;99.90
44647;DHT22;56315;-33.902;151.160;2023-05-10T12:21:21;12.10;99.90
44647;DHT22;56315;-33.902;151.160;2023-05-10T12:23:53;12.10;99.90
44647;DHT22;56315;-33.902;151.160;2023-05-10T12:26:25;12.10;99.90
44647;DHT22;56315;-33.902;151.160;2023-05-10T12:29:17;12.00;99.90
44647;DHT22;56315;-33.902;151.160;2023-05-10T12:31:57;12.00;99.90
44647;DHT22;56315;-33.902;151.160;2023-05-10T12:36:54;11.90;99.90
44647;DHT22;56315;-33.902;151.160;2023-05-10T12:39:22;11.90;99.90
44647;DHT22;56315;-33.902;151.160;2023-05-10T12:41:50;11.80;99.90
44647;DHT22;56315;-33.902;151.160;2023-05-10T12:44:17;11.80;99.90
44647;DHT22;56315;-33.902;151.160;2023-05-10T12:46:45;11.80;99.90
44647;DHT22;56315;-33.902;151.160;2023-05-10T12:49:12;11.80;99.90
44647;DHT22;56315;-33.902;151.160;2023-05-10T12:51:39;11.80;99.90
44647;DHT22;56315;-33.902;151.160;2023-05-10T12:54:06;11.80;99.90
44647;DHT22;56315;-33.902;151.160;2023-05-10T12:56:34;11.80;99.90
44647;DHT22;56315;-33.902;151.160;2023-05-10T12:59:01;11.70;99.90
44647;DHT22;56315;-33.902;151.160;2023-05-10T13:01:28;11.70;99.90
44647;DHT22;56315;-33.902;151.160;2023-05-10T13:03:56;11.80;99.90
44647;DHT22;56315;-33.902;151.160;2023-05-10T13:06:23;11.70;99.90
44647;DHT22;56315;-33.902;151.160;2023-05-10T13:08:50;11.70;99.90
44647;DHT22;56315;-33.902;151.160;2023-05-10T13:11:18;11.70;99.90
44647;DHT22;56315;-33.902;151.160;2023-05-10T13:13:46;11.60;99.90
44647;DHT22;56315;-33.902;151.160;2023-05-10T13:16:13;11.60;99.90
44647;DHT22;56315;-33.902;151.160;2023-05-10T13:18:41;11.60;99.90
44647;DHT22;56315;-33.902;151.160;2023-05-10T13:21:08;11.60;99.90
44647;DHT22;56315;-33.902;151.160;2023-05-10T13:23:35;11.60;99.90
44647;DHT22;56315;-33.902;151.160;2023-05-10T13:26:02;11.60;99.90
44647;DHT22;56315;-33.902;151.160;2023-05-10T13:28:29;11.50;99.90
44647;DHT22;56315;-33.902;151.160;2023-05-10T13:30:57;11.50;99.90
44647;DHT22;56315;-33.902;151.160;2023-05-10T13:33:26;11.50;99.90
44647;DHT22;56315;-33.902;151.160;2023-05-10T13:35:53;11.40;99.90
44647;DHT22;56315;-33.902;151.160;2023-05-10T13:38:20;11.40;99.90
44647;DHT22;56315;-33.902;151.160;2023-05-10T13:40:48;11.40;99.90
44647;DHT22;56315;-33.902;151.160;2023-05-10T13:43:19;11.40;99.90
44647;DHT22;56315;-33.902;151.160;2023-05-10T13:45:46;11.40;99.90
44647;DHT22;56315;-33.902;151.160;2023-05-10T13:48:13;11.40;99.90
44647;DHT22;56315;-33.902;151.160;2023-05-10T13:50:42;11.30;99.90
44647;DHT22;56315;-33.902;151.160;2023-05-10T13:53:09;11.40;99.90
44647;DHT22;56315;-33.902;151.160;2023-05-10T13:55:37;11.40;99.90
44647;DHT22;56315;-33.902;151.160;2023-05-10T13:58:04;11.40;99.90
44647;DHT22;56315;-33.902;151.160;2023-05-10T14:00:31;11.30;99.90
44647;DHT22;56315;-33.902;151.160;2023-05-10T14:02:59;11.30;99.90
44647;DHT22;56315;-33.902;151.160;2023-05-10T14:05:26;11.30;99.90
44647;DHT22;56315;-33.902;151.160;2023-05-10T14:07:54;11.30;99.90
44647;DHT22;56315;-33.902;151.160;2023-05-10T14:10:21;11.30;99.90
44647;DHT22;56315;-33.902;151.160;2023-05-10T14:12:49;11.30;99.90
44647;DHT22;56315;-33.902;151.160;2023-05-10T14:15:16;11.30;99.90
44647;DHT22;56315;-33.902;151.160;2023-05-10T14:17:43;11.30;99.90
44647;DHT22;56315;-33.902;151.160;2023-05-10T14:20:11;11.30;99.90
44647;DHT22;56315;-33.902;151.160;2023-05-10T14:22:38;11.30;99.90
44647;DHT22;56315;-33.902;151.160;2023-05-10T14:25:07;11.30;99.90
44647;DHT22;56315;-33.902;151.160;2023-05-10T14:27:34;11.30;99.90
44647;DHT22;56315;-33.902;151.160;2023-05-10T14:30:01;11.20;99.90
44647;DHT22;56315;-33.902;151.160;2023-05-10T14:32:28;11.20;99.90
44647;DHT22;56315;-33.902;151.160;2023-05-10T14:34:58;11.20;99.90
44647;DHT22;56315;-33.902;151.160;2023-05-10T14:37:26;11.20;99.90
44647;DHT22;56315;-33.902;151.160;2023-05-10T14:39:53;11.20;99.90
44647;DHT22;56315;-33.902;151.160;2023-05-10T14:42:20;11.20;99.90
44647;DHT22;56315;-33.902;151.160;2023-05-10T14:44:48;11.30;99.90
44647;DHT22;56315;-33.902;151.160;2023-05-10T14:47:15;11.30;99.90
44647;DHT22;56315;-33.902;151.160;2023-05-10T14:49:42;11.40;99.90
44647;DHT22;56315;-33.902;151.160;2023-05-10T14:52:09;11.50;99.90
44647;DHT22;56315;-33.902;151.160;2023-05-10T14:54:38;11.60;99.90
44647;DHT22;56315;-33.902;151.160;2023-05-10T14:57:06;11.60;99.90
44647;DHT22;56315;-33.902;151.160;2023-05-10T14:59:33;11.60;99.90
44647;DHT22;56315;-33.902;151.160;2023-05-10T15:02:00;11.60;99.90
44647;DHT22;56315;-33.902;151.160;2023-05-10T15:04:28;11.60;99.90
44647;DHT22;56315;-33.902;151.160;2023-05-10T15:06:55;11.60;99.90
44647;DHT22;56315;-33.902;151.160;2023-05-10T15:09:25;11.60;99.90
44647;DHT22;56315;-33.902;151.160;2023-05-10T15:11:54;11.50;99.90
44647;DHT22;56315;-33.902;151.160;2023-05-10T15:14:22;11.50;99.90
44647;DHT22;56315;-33.902;151.160;2023-05-10T15:16:49;11.40;99.90
44647;DHT22;56315;-33.902;151.160;2023-05-10T15:19:16;11.40;99.90
44647;DHT22;56315;-33.902;151.160;2023-05-10T15:21:44;11.30;99.90
44647;DHT22;56315;-33.902;151.160;2023-05-10T15:24:11;11.30;99.90
44647;DHT22;56315;-33.902;151.160;2023-05-10T15:26:38;11.20;99.90
44647;DHT22;56315;-33.902;151.160;2023-05-10T15:29:06;11.20;99.90
44647;DHT22;56315;-33.902;151.160;2023-05-10T15:31:34;11.10;99.90
44647;DHT22;56315;-33.902;151.160;2023-05-10T15:34:05;11.10;99.90
44647;DHT22;56315;-33.902;151.160;2023-05-10T15:36:33;11.10;99.90
44647;DHT22;56315;-33.902;151.160;2023-05-10T15:39:00;11.00;99.90
44647;DHT22;56315;-33.902;151.160;2023-05-10T15:41:27;11.00;99.90
44647;DHT22;56315;-33.902;151.160;2023-05-10T15:43:55;11.00;99.90